Time;durP1;ratioP1;P1;durP2;ratioP2;P2;SDS_P1;SDS_P2;PMS_P1;PMS_P2;Temp;Humidity;BMP_temperature;BMP_pressure;BME280_temperature;BME280_humidity;BME280_pressure;Samples;Min_cycle;Max_cycle;Signal;HPM_P1;HPM_P2
2022/10/05 00:00:25;;;;;;;11.98;9.00;;;10.20;82.50;;;8.81;100.00;96700.22;4931830;28;20050;-70
2022/10/05 00:02:52;;;;;;;10.52;8.10;;;10.20;82.30;;;8.79;100.00;96691.69;4950007;28;20059;-70
2022/10/05 00:05:29;;;;;;;13.55;8.10;;;10.20;82.10;;;8.77;100.00;96685.81;4960343;28;20126;-70
2022/10/05 00:08:16;;;;;;;11.05;8.55;;;10.20;82.00;;;8.76;100.00;96683.34;4962938;28;20054;-69
2022/10/05 00:10:42;;;;;;;11.82;8.43;;;10.10;82.00;;;8.72;100.00;96677.59;4951522;28;20070;-69
2022/10/05 00:13:16;;;;;;;12.85;8.45;;;10.10;82.10;;;8.65;100.00;96671.38;4996127;28;20134;-70
2022/10/05 00:15:42;;;;;;;12.15;8.82;;;10.10;82.10;;;8.64;100.00;96668.94;4954521;28;20042;-69
2022/10/05 00:18:16;;;;;;;11.07;7.97;;;10.00;82.20;;;8.61;100.00;96664.84;4966124;28;20105;-69
2022/10/05 00:20:42;;;;;;;12.23;8.13;;;10.00;82.40;;;8.59;100.00;96657.09;4965523;28;20039;-69
2022/10/05 00:23:24;;;;;;;11.25;7.95;;;10.00;82.30;;;8.58;100.00;96647.59;4984879;28;20524;-70
2022/10/05 00:25:50;;;;;;;9.40;7.63;;;10.00;82.30;;;8.53;100.00;96647.25;4989834;28;20143;-69
2022/10/05 00:28:25;;;;;;;10.07;7.65;;;9.90;82.20;;;8.50;100.00;96652.84;4999969;28;20762;-69
2022/10/05 00:30:54;;;;;;;14.00;8.25;;;9.90;82.10;;;8.45;100.00;96644.66;4949751;28;20031;-70
2022/10/05 00:33:20;;;;;;;10.43;7.78;;;9.90;82.20;;;8.46;100.00;96641.03;4952770;28;20408;-71
2022/10/05 00:35:46;;;;;;;10.55;7.70;;;9.90;82.20;;;8.45;100.00;96636.78;4984131;28;20061;-70
2022/10/05 00:38:12;;;;;;;9.00;7.50;;;9.90;82.20;;;8.42;100.00;96639.72;4985747;28;20074;-70
2022/10/05 00:41:01;;;;;;;10.15;7.78;;;9.80;82.00;;;8.40;100.00;96643.50;4965328;28;20063;-69
2022/10/05 00:44:10;;;;;;;9.90;7.00;;;9.70;82.00;;;8.36;100.00;96650.03;5009878;28;20510;-69
2022/10/05 00:47:06;;;;;;;9.98;6.93;;;9.70;81.80;;;8.31;100.00;96650.47;4964147;28;20422;-70
2022/10/05 00:50:09;;;;;;;7.97;6.45;;;9.70;81.60;;;8.27;100.00;96636.06;4962628;28;20039;-71
2022/10/05 00:52:59;;;;;;;8.02;6.15;;;9.60;81.60;;;8.20;100.00;96641.13;5006499;28;20029;-70
2022/10/05 00:55:50;;;;;;;8.93;6.57;;;9.60;81.70;;;8.17;100.00;96635.41;4968756;28;20396;-70
2022/10/05 00:58:36;;;;;;;8.70;6.38;;;9.50;81.80;;;8.14;100.00;96630.44;4967079;28;20035;-70
2022/10/05 01:01:20;;;;;;;7.65;5.25;;;9.50;82.00;;;8.13;100.00;96626.19;4952532;28;20113;-69
2022/10/05 01:04:26;;;;;;;6.93;6.07;;;9.50;82.10;;;8.12;100.00;96625.38;4957194;28;20388;-70
2022/10/05 01:07:38;;;;;;;10.10;5.88;;;9.60;82.30;;;8.08;100.00;96618.00;4985181;28;20113;-69
2022/10/05 01:10:33;;;;;;;8.25;6.10;;;9.50;82.20;;;8.05;100.00;96621.78;4982786;28;20054;-69
2022/10/05 01:13:22;;;;;;;10.15;6.85;;;9.50;82.20;;;8.02;100.00;96616.03;4960372;28;20099;-71
2022/10/05 01:16:12;;;;;;;8.07;5.60;;;9.50;82.30;;;8.03;100.00;96622.91;4987374;28;20022;-71
2022/10/05 01:18:56;;;;;;;8.85;6.03;;;9.50;82.20;;;8.03;100.00;96613.25;4937700;28;20563;-70
2022/10/05 01:21:24;;;;;;;8.85;6.07;;;9.50;82.10;;;8.02;100.00;96610.78;4979772;28;20411;-70
2022/10/05 01:24:15;;;;;;;9.45;6.80;;;9.50;82.00;;;8.04;100.00;96603.59;5020757;28;20060;-69
2022/10/05 01:26:57;;;;;;;10.02;6.40;;;9.50;81.80;;;8.01;100.00;96604.72;5035168;28;20045;-70
2022/10/05 01:29:57;;;;;;;9.65;6.13;;;9.50;81.90;;;7.99;100.00;96612.75;4946512;28;20039;-69
2022/10/05 01:32:48;;;;;;;9.70;5.80;;;9.50;81.90;;;7.99;100.00;96612.75;4995502;28;20063;-69
2022/10/05 01:36:08;;;;;;;9.30;5.95;;;9.50;82.00;;;7.99;100.00;96612.75;5007063;28;20058;-71
2022/10/05 01:38:55;;;;;;;6.30;5.40;;;9.40;81.50;;;7.96;100.00;96618.31;4971411;28;20039;-70
2022/10/05 01:41:42;;;;;;;8.45;5.82;;;9.40;81.20;;;7.93;100.00;96616.03;4952641;28;20027;-69
2022/10/05 01:44:15;;;;;;;7.57;5.40;;;9.30;81.20;;;7.89;100.00;96609.44;4975358;28;20069;-70
2022/10/05 01:46:47;;;;;;;8.25;5.22;;;9.30;81.10;;;7.84;100.00;96619.59;4973206;28;20038;-70
2022/10/05 01:49:37;;;;;;;8.07;5.28;;;9.30;80.80;;;7.81;100.00;96612.03;4951383;28;20046;-69
2022/10/05 01:52:34;;;;;;;7.43;5.22;;;9.30;81.10;;;7.79;100.00;96606.16;4950402;28;20035;-69
2022/10/05 01:55:18;;;;;;;8.07;4.80;;;9.30;81.10;;;7.79;100.00;96608.78;5006891;28;20084;-70
2022/10/05 01:58:08;;;;;;;6.20;4.95;;;9.30;81.40;;;7.79;100.00;96600.09;4976954;28;20031;-70
2022/10/05 02:01:14;;;;;;;7.05;5.00;;;9.30;81.70;;;7.78;100.00;96609.75;4982918;28;20508;-71
2022/10/05 02:03:49;;;;;;;7.68;5.35;;;9.30;81.90;;;7.81;100.00;96598.94;4965581;28;20118;-69
2022/10/05 02:06:22;;;;;;;9.43;5.13;;;9.30;81.70;;;7.81;100.00;96603.38;5005652;28;20599;-69
2022/10/05 02:08:55;;;;;;;7.22;4.70;;;9.30;81.60;;;7.81;100.00;96598.13;5002724;28;20032;-69
2022/10/05 02:11:21;;;;;;;7.05;4.60;;;9.30;81.50;;;7.83;100.00;96590.94;4964174;28;20046;-69
2022/10/05 02:14:07;;;;;;;8.48;4.93;;;9.30;81.60;;;7.79;100.00;96585.19;4991527;28;20501;-68
2022/10/05 02:16:42;;;;;;;8.15;5.20;;;9.30;81.60;;;7.81;100.00;96582.41;4951550;28;20468;-68
2022/10/05 02:19:19;;;;;;;7.68;5.05;;;9.30;81.60;;;7.81;100.00;96577.19;4950308;28;20502;-68
2022/10/05 02:21:49;;;;;;;7.55;4.82;;;9.30;81.60;;;7.81;100.00;96571.94;4966808;28;20133;-69
2022/10/05 02:24:23;;;;;;;19.33;14.25;;;9.30;81.80;;;7.82;100.00;96582.25;4928726;23;20047;-66
2022/10/05 02:26:50;;;;;;;103.80;71.32;;;9.30;81.80;;;7.81;100.00;96578.00;4917852;29;20043;-66
2022/10/05 02:29:16;;;;;;;50.58;35.70;;;9.30;81.80;;;7.82;100.00;96581.44;4910938;28;20047;-66
2022/10/05 02:31:49;;;;;;;29.17;21.50;;;9.40;81.90;;;7.82;100.00;96577.03;4921340;28;20147;-66
2022/10/05 02:34:30;;;;;;;42.60;28.67;;;9.40;81.90;;;7.82;100.00;96573.56;4904235;28;20048;-67
2022/10/05 02:37:24;;;;;;;26.35;17.92;;;9.40;82.30;;;7.83;100.00;96570.78;4895322;28;20039;-66
2022/10/05 02:40:12;;;;;;;9.40;6.70;;;9.30;82.40;;;7.82;100.00;96558.69;4912148;29;20095;-66
2022/10/05 02:43:06;;;;;;;9.82;5.57;;;9.40;82.90;;;7.85;100.00;96553.13;4909389;29;20044;-66
2022/10/05 02:45:38;;;;;;;9.90;5.07;;;9.40;83.20;;;7.86;100.00;96554.75;4914302;28;20115;-66
2022/10/05 02:48:41;;;;;;;7.82;5.35;;;9.40;83.30;;;7.89;100.00;96564.09;4907017;28;20036;-66
2022/10/05 02:51:22;;;;;;;7.50;4.45;;;9.50;83.20;;;7.90;100.00;96565.72;4906879;29;20052;-66
2022/10/05 02:54:29;;;;;;;;;;;9.50;83.10;;;7.90;100.00;96574.41;4937918;28;20135;-66
2022/10/05 02:57:06;;;;;;;9.30;4.57;;;9.50;82.80;;;7.89;100.00;96570.16;4924221;28;19950;-66
2022/10/05 02:59:52;;;;;;;8.25;4.60;;;9.40;82.10;;;7.87;100.00;96572.13;4909941;28;20500;-66
2022/10/05 03:02:32;;;;;;;7.25;4.68;;;9.40;81.90;;;7.84;100.00;96572.44;4911398;28;20044;-66
2022/10/05 03:05:17;;;;;;;7.30;4.47;;;9.30;81.60;;;7.83;100.00;96583.06;4892480;28;20042;-66
2022/10/05 03:08:14;;;;;;;49.90;31.40;;;9.30;81.60;;;7.79;100.00;96585.19;4905277;28;20516;-66
2022/10/05 03:11:24;;;;;;;22.05;15.02;;;9.30;81.10;;;7.73;100.00;96580.59;4916599;29;20091;-65
2022/10/05 03:15:03;;;;;;;7.22;4.95;;;9.30;80.80;;;7.67;100.00;96581.22;4901867;28;20119;-69
2022/10/05 03:17:52;;;;;;;7.30;4.03;;;9.10;80.40;;;7.59;100.00;96582.03;4905709;29;20040;-70
2022/10/05 03:20:58;;;;;;;5.93;3.85;;;9.10;80.70;;;7.55;100.00;96591.19;4941359;28;20043;-68
2022/10/05 03:23:44;;;;;;;10.38;4.47;;;9.00;81.10;;;7.51;100.00;96581.19;4919047;28;20048;-70
2022/10/05 03:26:40;;;;;;;4.90;3.70;;;9.00;81.30;;;7.47;100.00;96579.84;4905731;29;20036;-69
2022/10/05 03:29:19;;;;;;;7.47;4.03;;;8.90;81.60;;;7.44;100.00;96575.75;4925926;28;20128;-68
2022/10/05 03:32:23;;;;;;;5.32;4.18;;;8.90;81.50;;;7.45;100.00;96592.25;4952732;28;20038;-70
2022/10/05 03:34:58;;;;;;;4.18;3.35;;;8.90;81.40;;;7.42;100.00;96576.88;4959194;28;20044;-66
2022/10/05 03:37:31;;;;;;;9.55;4.30;;;8.90;81.50;;;7.36;100.00;96573.09;4905002;29;20068;-67
2022/10/05 03:40:13;;;;;;;6.55;4.10;;;8.80;81.50;;;7.35;100.00;96572.28;4902153;28;20633;-66
2022/10/05 03:43:33;;;;;;;6.43;4.63;;;8.80;81.50;;;7.34;100.00;96559.34;4904273;28;20044;-67
2022/10/05 03:46:09;;;;;;;5.88;4.18;;;8.80;81.60;;;7.29;100.00;96562.44;4903068;28;20040;-66
2022/10/05 03:48:52;;;;;;;5.72;4.30;;;8.80;81.50;;;7.27;100.00;96568.81;4906504;29;20060;-67
2022/10/05 03:51:31;;;;;;;6.72;4.15;;;8.80;81.70;;;7.26;100.00;96568.00;4905632;29;20049;-67
2022/10/05 03:54:12;;;;;;;5.82;4.18;;;8.80;81.80;;;7.26;100.00;96569.78;4901606;28;20475;-66
2022/10/05 03:56:48;;;;;;;7.57;4.32;;;8.80;81.90;;;7.26;100.00;96568.00;4888679;28;20091;-67
2022/10/05 03:59:24;;;;;;;5.28;3.88;;;8.80;81.80;;;7.26;100.00;96562.75;4979969;28;20418;-67
2022/10/05 04:01:57;;;;;;;6.68;4.05;;;8.70;81.60;;;7.25;100.00;96565.53;4915171;28;20622;-66
2022/10/05 04:04:36;;;;;;;4.35;3.55;;;8.70;81.50;;;7.22;100.00;96569.25;4886619;28;20416;-67
2022/10/05 04:07:02;;;;;;;6.32;4.00;;;8.70;81.50;;;7.18;100.00;96569.75;4897333;28;20503;-66
2022/10/05 04:09:41;;;;;;;5.15;3.80;;;8.60;81.30;;;7.16;100.00;96567.28;4877670;28;20041;-67
2022/10/05 04:12:32;;;;;;;4.38;3.53;;;8.60;81.20;;;7.11;100.00;96559.09;4947857;28;20404;-68
2022/10/05 04:15:00;;;;;;;7.22;4.40;;;8.60;81.30;;;7.06;100.00;96562.19;4903209;29;20032;-73
2022/10/05 04:17:36;;;;;;;8.07;3.97;;;8.60;81.20;;;7.05;100.00;96570.19;4897881;28;20044;-73
2022/10/05 04:20:27;;;;;;;5.22;3.70;;;8.60;81.50;;;7.04;100.00;96568.53;4892678;28;20085;-73
2022/10/05 04:23:10;;;;;;;6.07;4.60;;;8.60;81.70;;;7.02;100.00;96555.63;4944022;28;20044;-71
2022/10/05 04:26:05;;;;;;;8.35;4.47;;;8.60;82.10;;;7.02;100.00;96560.84;4972738;28;20096;-69
2022/10/05 04:28:59;;;;;;;6.30;4.15;;;8.60;82.10;;;7.01;100.00;96563.59;4922342;28;20919;-68
2022/10/05 04:32:00;;;;;;;6.45;4.22;;;8.60;82.40;;;7.01;100.00;96566.22;4908288;28;20121;-72
2022/10/05 04:35:09;;;;;;;8.25;4.55;;;8.50;82.40;;;7.00;100.00;96562.78;4890578;29;20040;-70
2022/10/05 04:37:53;;;;;;;8.13;3.92;;;8.50;82.60;;;6.99;100.00;96565.53;4907219;29;20048;-68
2022/10/05 04:40:33;;;;;;;6.90;4.50;;;8.50;82.60;;;6.99;100.00;96570.78;4907096;28;20040;-73
2022/10/05 04:43:31;;;;;;;6.63;3.95;;;8.50;82.60;;;7.00;100.00;96567.19;4910048;29;20041;-69
2022/10/05 04:46:48;;;;;;;13.35;4.38;;;8.50;82.50;;;6.97;100.00;96567.50;4908528;28;20039;-65
2022/10/05 04:49:46;;;;;;;6.72;3.88;;;8.50;82.60;;;6.98;100.00;96566.53;4931132;28;20128;-63
2022/10/05 04:52:31;;;;;;;6.80;4.25;;;8.50;82.70;;;6.97;100.00;96576.16;4915494;28;20033;-69
2022/10/05 04:55:28;;;;;;;6.97;4.35;;;8.50;82.60;;;6.98;100.00;96574.38;4900710;28;20681;-68
2022/10/05 04:58:18;;;;;;;6.57;4.30;;;8.50;82.30;;;6.95;100.00;96585.13;4902849;28;20040;-69
2022/10/05 05:01:27;;;;;;;7.70;4.90;;;8.50;82.30;;;6.94;100.00;96575.66;4905251;28;20456;-69
2022/10/05 05:04:17;;;;;;;7.03;4.40;;;8.50;82.30;;;6.91;100.00;96581.19;4931698;28;20135;-70
2022/10/05 05:07:16;;;;;;;6.82;4.53;;;8.50;82.30;;;6.92;100.00;96585.47;4902813;28;20040;-69
2022/10/05 05:10:19;;;;;;;8.95;5.30;;;8.50;82.20;;;6.89;100.00;96581.34;4928795;28;20098;-70
2022/10/05 05:13:29;;;;;;;6.30;4.10;;;8.50;82.40;;;6.87;100.00;96582.50;4933133;28;20487;-73
2022/10/05 05:16:15;;;;;;;6.93;4.55;;;8.40;82.20;;;6.84;100.00;96585.41;4940327;28;20194;-70
2022/10/05 05:19:03;;;;;;;7.40;4.78;;;8.40;82.30;;;6.82;100.00;96587.38;4926016;28;20045;-76
2022/10/05 05:22:01;;;;;;;6.43;4.80;;;8.40;82.30;;;6.83;100.00;96594.22;4893345;28;20102;-71
2022/10/05 05:24:41;;;;;;;6.93;4.85;;;8.40;82.30;;;6.82;100.00;96593.41;4899127;29;20055;-70
2022/10/05 05:27:46;;;;;;;6.35;4.70;;;8.40;82.30;;;6.84;100.00;96588.84;4920609;28;20037;-69
2022/10/05 05:30:22;;;;;;;8.95;4.63;;;8.40;82.30;;;6.83;100.00;96596.84;4886334;29;20036;-74
2022/10/05 05:33:12;;;;;;;7.43;4.82;;;8.40;82.00;;;6.83;100.00;96599.47;4987293;28;20032;-69
2022/10/05 05:35:41;;;;;;;5.90;4.30;;;8.40;81.80;;;6.83;100.00;96586.38;4889202;29;20029;-75
2022/10/05 05:38:27;;;;;;;6.20;4.18;;;8.40;81.60;;;6.82;100.00;96589.97;4894398;28;20033;-70
2022/10/05 05:41:08;;;;;;;6.63;4.28;;;8.40;81.60;;;6.80;100.00;96586.69;4898794;28;20590;-72
2022/10/05 05:43:52;;;;;;;5.45;4.05;;;8.50;81.80;;;6.79;100.00;96585.88;4892993;28;20040;-75
2022/10/05 05:46:27;;;;;;;13.15;4.80;;;8.40;82.10;;;6.78;100.00;96584.22;4917520;28;20546;-76
2022/10/05 05:48:54;;;;;;;5.35;3.83;;;8.50;82.20;;;6.80;100.00;96586.69;4933103;28;20051;-77
2022/10/05 05:51:33;;;;;;;5.05;3.65;;;8.50;82.70;;;6.81;100.00;96585.72;4905329;28;20151;-67
2022/10/05 05:55:09;;;;;;;6.15;3.35;;;8.50;83.10;;;6.83;100.00;96576.75;4910259;28;20407;-73
2022/10/05 05:57:47;;;;;;;5.65;3.05;;;8.50;83.20;;;6.81;100.00;96585.72;4899237;29;20501;-72
2022/10/05 06:00:13;;;;;;;5.55;3.30;;;8.40;83.40;;;6.83;100.00;96589.00;4902853;29;20068;-71
2022/10/05 06:02:47;;;;;;;7.60;3.78;;;8.40;83.50;;;6.85;100.00;96584.44;4904650;29;20048;-69
2022/10/05 06:05:36;;;;;;;28.27;17.77;;;8.50;83.60;;;6.92;100.00;96596.75;4901297;28;20073;-68
2022/10/05 06:08:22;;;;;;;30.10;20.38;;;8.60;84.40;;;7.02;100.00;96594.03;4903795;28;20727;-70
2022/10/05 06:11:01;;;;;;;32.80;21.10;;;8.80;84.90;;;7.10;100.00;96595.88;4905959;28;20388;-72
2022/10/05 06:13:33;;;;;;;47.15;34.22;;;8.90;84.50;;;7.17;100.00;96596.88;4889785;28;20094;-70
2022/10/05 06:16:18;;;;;;;;;;;9.00;84.20;;;7.23;100.00;96609.31;4888836;28;20028;-71
2022/10/05 06:18:55;;;;;;;15.10;10.55;;;9.00;83.80;;;7.30;100.00;96589.44;4895270;28;20026;-72
2022/10/05 06:22:01;;;;;;;17.45;12.05;;;9.10;83.60;;;7.37;100.00;96601.72;4937973;28;20031;-73
2022/10/05 06:24:44;;;;;;;17.85;12.00;;;9.20;83.40;;;7.44;100.00;96606.31;4959370;28;20042;-62
2022/10/05 06:27:37;;;;;;;17.55;10.43;;;9.20;82.90;;;7.50;100.00;96600.50;4913635;28;20126;-65
2022/10/05 06:30:14;;;;;;;33.10;21.55;;;9.30;82.70;;;7.58;100.00;96597.88;4911986;28;20029;-68
2022/10/05 06:33:03;;;;;;;24.05;17.13;;;9.50;82.80;;;7.64;100.00;96600.69;4914100;28;20031;-64
2022/10/05 06:35:34;;;;;;;15.40;10.98;;;9.50;82.40;;;7.70;100.00;96607.13;4923417;28;20102;-72
2022/10/05 06:38:40;;;;;;;6.65;4.63;;;9.60;82.20;;;7.78;100.00;96606.31;4906033;28;20041;-70
2022/10/05 06:41:17;;;;;;;5.22;4.07;;;9.60;81.90;;;7.85;100.00;96604.69;4902699;28;20041;-72
2022/10/05 06:44:06;;;;;;;4.25;3.25;;;9.70;82.00;;;7.90;100.00;96592.75;4903632;29;20040;-71
2022/10/05 06:46:51;;;;;;;9.18;3.45;;;9.70;81.80;;;7.96;100.00;96602.59;4907110;29;20062;-73
2022/10/05 06:49:20;;;;;;;5.93;3.42;;;9.90;81.90;;;8.06;100.00;96601.63;4879797;28;20047;-72
2022/10/05 06:51:56;;;;;;;4.57;3.47;;;10.00;82.20;;;8.18;100.00;96602.97;4885312;29;20039;-71
2022/10/05 06:54:53;;;;;;;6.53;3.63;;;10.10;82.40;;;8.34;100.00;96600.38;4921819;28;20590;-71
2022/10/05 06:58:02;;;;;;;6.43;3.22;;;10.30;82.20;;;8.53;100.00;96599.25;4909878;28;20523;-70
2022/10/05 07:01:15;;;;;;;4.55;3.22;;;10.60;82.50;;;8.75;100.00;96603.84;4940393;28;20111;-71
2022/10/05 07:04:33;;;;;;;4.93;3.08;;;10.90;81.90;;;8.95;100.00;96608.75;4914234;28;20048;-69
2022/10/05 07:07:39;;;;;;;3.63;2.70;;;11.10;81.30;;;9.14;100.00;96609.19;4911578;29;20103;-71
2022/10/05 07:10:34;;;;;;;5.00;2.75;;;11.50;79.70;;;9.40;100.00;96605.53;4897796;28;20400;-69
2022/10/05 07:13:09;;;;;;;7.43;3.67;;;11.70;78.60;;;9.59;100.00;96607.75;4920240;28;20534;-71
2022/10/05 07:15:47;;;;;;;6.65;3.15;;;12.00;77.90;;;9.77;100.00;96610.97;4933117;28;20122;-71
2022/10/05 07:18:49;;;;;;;7.47;3.10;;;12.30;77.40;;;10.07;100.00;96611.13;4892202;28;20624;-71
2022/10/05 07:21:42;;;;;;;5.28;2.95;;;12.50;76.10;;;10.31;100.00;96616.28;4908816;28;20123;-71
2022/10/05 07:24:29;;;;;;;7.50;3.15;;;12.90;75.10;;;10.58;100.00;96619.38;4910086;28;20036;-71
2022/10/05 07:27:16;;;;;;;4.50;2.30;;;13.20;75.10;;;10.85;100.00;96626.72;4922060;29;20040;-69
2022/10/05 07:30:03;;;;;;;3.70;2.33;;;13.70;72.50;;;11.16;100.00;96628.44;4903705;29;20405;-73
2022/10/05 07:32:55;;;;;;;2.92;2.08;;;14.30;71.00;;;11.48;100.00;96632.53;4911413;28;20042;-73
2022/10/05 07:38:35;;;;;;;7.50;4.45;;;15.90;66.60;;;12.15;100.00;96635.88;4911209;28;20538;-72
2022/10/05 07:41:21;;;;;;;9.38;4.60;;;16.70;63.80;;;12.48;100.00;96633.59;4906517;28;20079;-71
2022/10/05 07:44:02;;;;;;;7.57;3.70;;;17.30;60.80;;;12.87;100.00;96641.06;4898772;29;20071;-71
2022/10/05 07:46:42;;;;;;;10.73;3.65;;;17.90;59.20;;;13.23;100.00;96629.59;4907719;28;20133;-72
2022/10/05 07:49:37;;;;;;;12.27;3.80;;;18.40;58.20;;;13.60;100.00;96646.13;4901766;28;20059;-73
2022/10/05 07:52:29;;;;;;;3.30;2.30;;;18.90;56.60;;;13.94;100.00;96637.34;4908836;28;20033;-67
2022/10/05 07:55:20;;;;;;;8.00;5.18;;;19.20;53.30;;;14.24;100.00;96637.88;4920202;28;20044;-72
2022/10/05 07:57:55;;;;;;;14.88;11.77;;;19.60;51.80;;;14.53;100.00;96642.88;4919944;28;20039;-72
2022/10/05 08:00:22;;;;;;;5.95;2.90;;;20.10;51.90;;;14.85;100.00;96640.47;4915727;28;20127;-71
2022/10/05 08:03:00;;;;;;;5.57;3.10;;;20.40;50.60;;;15.15;99.16;96641.72;4891553;28;20036;-71
2022/10/05 08:05:30;;;;;;;3.70;2.20;;;20.80;50.80;;;15.45;95.37;96646.59;4905600;28;20727;-71
2022/10/05 08:08:07;;;;;;;3.60;2.40;;;21.00;48.10;;;15.75;93.46;96641.69;4899215;28;20039;-72
2022/10/05 08:10:49;;;;;;;5.50;2.35;;;21.40;48.90;;;16.06;91.51;96633.00;4903597;29;20040;-70
2022/10/05 08:13:36;;;;;;;4.85;2.42;;;21.90;47.10;;;16.39;86.17;96639.00;4892713;28;20120;-73
2022/10/05 08:16:05;;;;;;;3.70;2.35;;;22.10;45.60;;;16.66;92.05;96638.84;4917472;28;20555;-71
2022/10/05 08:18:58;;;;;;;3.55;2.13;;;22.50;46.10;;;17.02;86.18;96643.53;4890473;28;20040;-71
2022/10/05 08:21:36;;;;;;;5.28;2.35;;;23.00;46.00;;;17.28;85.83;96642.50;4903749;28;20040;-73
2022/10/05 08:24:20;;;;;;;3.80;2.17;;;23.00;45.40;;;17.53;84.98;96639.84;4899818;28;20520;-72
2022/10/05 08:27:00;;;;;;;6.80;2.28;;;23.10;45.20;;;17.81;81.01;96642.03;4909021;28;20592;-71
2022/10/05 08:29:48;;;;;;;4.72;2.63;;;23.30;44.80;;;18.00;83.71;96646.34;4931433;28;20393;-72
2022/10/05 08:32:22;;;;;;;3.83;2.40;;;23.20;44.60;;;18.25;78.90;96643.56;4906616;29;20044;-72
2022/10/05 08:34:51;;;;;;;2.90;1.85;;;23.40;44.00;;;18.41;79.31;96650.16;4884045;28;20033;-73
2022/10/05 08:37:29;;;;;;;3.58;1.92;;;23.40;44.20;;;18.58;75.20;96640.50;4906091;28;20032;-72
2022/10/05 08:40:32;;;;;;;3.67;1.75;;;23.40;43.60;;;18.74;72.52;96637.22;4905718;28;20508;-70
2022/10/05 08:43:35;;;;;;;5.72;2.03;;;23.40;43.50;;;18.93;72.89;96637.97;4906881;28;20675;-70
2022/10/05 08:46:16;;;;;;;3.33;1.85;;;23.70;43.20;;;19.15;71.43;96639.06;4904625;28;20119;-70
2022/10/05 08:49:35;;;;;;;3.45;1.70;;;23.80;42.40;;;19.36;70.22;96647.53;4892522;29;20597;-71
2022/10/05 08:52:36;;;;;;;6.95;1.60;;;23.80;42.90;;;19.56;71.25;96640.03;4907334;29;20220;-69
2022/10/05 08:55:31;;;;;;;8.43;6.03;;;23.90;43.70;;;19.74;70.93;96636.44;4900650;28;20071;-71
2022/10/05 08:58:27;;;;;;;9.68;6.13;;;23.90;43.70;;;19.92;70.09;96640.84;4908067;28;20032;-71
2022/10/05 09:01:15;;;;;;;8.93;7.43;;;24.10;43.80;;;20.06;69.94;96628.84;4907886;28;20135;-69
2022/10/05 09:04:02;;;;;;;4.18;2.03;;;24.30;43.30;;;20.28;69.78;96629.84;4899404;28;20112;-69
2022/10/05 09:07:07;;;;;;;4.15;1.80;;;24.50;43.60;;;20.51;70.04;96631.66;4901360;29;20055;-68
2022/10/05 09:10:07;;;;;;;4.88;1.52;;;24.70;43.70;;;20.69;66.86;96634.13;4888136;28;20408;-69
2022/10/05 09:12:43;;;;;;;6.28;1.77;;;24.80;41.80;;;20.88;65.03;96639.28;4896015;29;20098;-71
2022/10/05 09:15:44;;;;;;;3.75;1.50;;;24.90;40.90;;;21.11;64.42;96631.13;4919681;29;20063;-71
2022/10/05 09:18:21;;;;;;;4.25;2.00;;;25.50;41.00;;;21.39;65.85;96638.28;4987220;28;20611;-69
2022/10/05 09:20:58;;;;;;;4.05;2.13;;;25.80;40.90;;;21.62;64.91;96637.28;4893993;29;20064;-69
2022/10/05 09:23:34;;;;;;;6.90;2.13;;;26.30;39.00;;;21.94;62.63;96638.25;4906289;29;20124;-69
2022/10/05 09:26:57;;;;;;;4.55;2.00;;;26.90;38.40;;;22.29;59.45;96631.78;4918617;29;20036;-70
2022/10/05 09:29:44;;;;;;;2.83;1.70;;;27.30;36.80;;;22.53;60.18;96635.81;4918030;28;20040;-70
2022/10/05 09:32:38;;;;;;;5.40;1.83;;;27.90;36.40;;;22.87;59.22;96622.25;4900960;28;20045;-69
2022/10/05 09:35:37;;;;;;;2.17;1.48;;;28.60;35.40;;;23.28;57.33;96630.63;4913946;28;20036;-69
2022/10/05 09:38:24;;;;;;;5.88;1.77;;;29.90;33.60;;;23.84;57.69;96631.88;4927653;28;20042;-71
2022/10/05 09:41:24;;;;;;;5.50;2.42;;;31.50;32.00;;;24.30;55.77;96618.69;4900910;29;20045;-68
2022/10/05 09:44:23;;;;;;;4.93;2.20;;;32.10;29.90;;;24.79;54.04;96616.41;4930683;28;20040;-68
2022/10/05 09:47:17;;;;;;;4.63;2.53;;;32.70;29.10;;;25.32;54.01;96619.69;4905904;29;20036;-69
2022/10/05 09:49:51;;;;;;;6.38;2.17;;;33.70;28.40;;;25.81;53.88;96613.75;4893346;28;20042;-70
2022/10/05 09:52:37;;;;;;;2.10;1.20;;;34.50;27.60;;;26.39;51.25;96611.41;4917073;28;20094;-70
2022/10/05 09:55:30;;;;;;;5.18;1.30;;;35.70;26.20;;;27.02;50.08;96617.81;4903363;28;20060;-71
2022/10/05 09:58:22;;;;;;;2.88;1.20;;;36.90;25.10;;;27.57;48.49;96614.94;4902129;28;20490;-71
2022/10/05 10:01:36;;;;;;;3.05;1.10;;;36.60;25.00;;;27.92;46.83;96620.03;4914354;28;20061;-68
2022/10/05 10:04:25;;;;;;;1.90;1.25;;;36.50;25.60;;;28.21;47.96;96611.84;4892477;29;20063;-67
2022/10/05 10:07:15;;;;;;;2.30;1.30;;;36.50;25.80;;;28.49;44.95;96599.31;4906258;29;20059;-71
2022/10/05 10:10:07;;;;;;;;;;;37.10;24.20;;;28.86;45.40;96601.28;4901190;28;20033;-70
2022/10/05 10:13:01;;;;;;;2.25;1.13;;;37.70;23.50;;;29.18;44.47;96597.78;4910944;28;19919;-72
2022/10/05 10:16:10;;;;;;;5.78;1.20;;;36.80;24.70;;;29.27;43.29;96587.09;4902081;28;20768;-72
2022/10/05 10:19:11;;;;;;;3.03;1.20;;;36.80;24.90;;;29.39;43.33;96589.34;4904189;28;20044;-70
2022/10/05 10:22:05;;;;;;;1.40;0.90;;;36.60;25.00;;;29.48;42.60;96590.31;4909413;28;20312;-73
2022/10/05 10:24:54;;;;;;;2.67;0.75;;;36.60;25.50;;;29.50;41.35;96586.19;4905967;28;20094;-71
2022/10/05 10:27:23;;;;;;;;;;;36.40;24.70;;;29.54;41.86;96586.41;4907618;28;20040;-72
2022/10/05 10:30:18;;;;;;;3.75;0.88;;;36.70;24.80;;;29.65;40.76;96587.84;4922884;29;19919;-73
2022/10/05 10:33:18;;;;;;;1.67;0.70;;;36.90;24.30;;;29.77;40.29;96580.00;4918780;28;20043;-74
2022/10/05 10:36:23;;;;;;;2.22;0.80;;;36.60;24.70;;;29.81;40.33;96591.84;4912188;29;20044;-73
2022/10/05 10:39:13;;;;;;;2.08;0.95;;;37.00;24.60;;;29.88;38.80;96592.28;4906110;28;20032;-71
2022/10/05 10:41:55;;;;;;;1.20;0.98;;;36.90;23.80;;;30.01;38.96;96595.28;4927998;28;20423;-73
2022/10/05 10:45:02;;;;;;;4.00;1.10;;;37.30;23.50;;;29.98;38.06;96591.28;4907614;29;20449;-73
2022/10/05 10:47:49;;;;;;;2.17;0.88;;;36.60;23.70;;;29.97;38.32;96584.25;4909261;28;20130;-65
2022/10/05 10:50:50;;;;;;;3.85;0.80;;;37.00;24.40;;;30.20;39.18;96587.88;4907486;28;20565;-69
2022/10/05 10:53:27;;;;;;;2.67;0.82;;;37.70;24.30;;;30.49;38.20;96580.19;4907074;28;20052;-69
2022/10/05 10:56:21;;;;;;;2.17;0.88;;;38.40;23.20;;;30.96;38.81;96579.97;4903140;29;20036;-70
2022/10/05 10:59:23;;;;;;;2.15;0.90;;;38.90;23.00;;;31.49;37.66;96574.63;4899798;29;20070;-70
2022/10/05 11:02:31;;;;;;;2.67;0.97;;;39.50;22.40;;;31.90;36.53;96568.13;4903089;29;20158;-70
2022/10/05 11:05:22;;;;;;;3.85;0.80;;;40.30;21.30;;;32.34;35.77;96567.16;4895448;28;20863;-70
2022/10/05 11:08:07;;;;;;;3.35;0.63;;;40.70;21.40;;;32.70;34.47;96564.19;4924000;28;20037;-69
2022/10/05 11:11:16;;;;;;;3.20;0.80;;;40.60;20.60;;;33.14;34.61;96546.72;4913312;28;20123;-71
2022/10/05 11:14:25;;;;;;;4.47;0.82;;;41.40;20.90;;;33.60;33.53;96553.38;4907982;29;20044;-70
2022/10/05 11:17:28;;;;;;;1.73;0.80;;;41.80;20.20;;;33.78;33.47;96548.66;4918491;29;20060;-73
2022/10/05 11:20:54;;;;;;;3.22;0.80;;;41.50;20.50;;;33.94;33.39;96547.00;4923365;28;20037;-69
2022/10/05 11:24:03;;;;;;;3.80;0.73;;;41.10;20.80;;;33.96;33.38;96549.41;4905755;28;20051;-72
2022/10/05 11:27:07;;;;;;;1.38;0.73;;;40.50;21.70;;;34.02;32.39;96537.97;4914666;28;20068;-70
2022/10/05 11:30:09;;;;;;;1.88;0.80;;;40.30;21.60;;;34.00;31.95;96529.31;4933692;28;20044;-70
2022/10/05 11:33:12;;;;;;;4.57;0.70;;;40.20;21.10;;;34.06;32.49;96533.44;4904398;28;20079;-72
2022/10/05 11:35:38;;;;;;;1.70;0.68;;;40.30;21.90;;;33.88;35.12;96525.69;4988924;28;20036;-71
2022/10/05 11:38:36;;;;;;;2.42;0.75;;;38.80;23.40;;;33.58;33.27;96522.09;4905508;29;20028;-69
2022/10/05 11:41:48;;;;;;;1.57;0.67;;;38.40;23.90;;;33.34;32.34;96522.66;4937087;28;20106;-70
2022/10/05 11:45:10;;;;;;;1.17;0.80;;;37.90;24.10;;;33.11;33.98;96520.09;4905762;29;20063;-70
2022/10/05 11:48:12;;;;;;;2.17;0.80;;;37.70;25.10;;;33.08;34.02;96517.22;4909985;29;20126;-70
2022/10/05 11:50:43;;;;;;;1.60;0.68;;;38.10;24.40;;;33.12;35.79;96515.44;4894079;28;20040;-71
2022/10/05 11:53:28;;;;;;;1.75;0.70;;;38.50;24.60;;;33.25;32.45;96506.25;4905431;29;20040;-70